Time;durP1;ratioP1;P1;durP2;ratioP2;P2;SDS_P1;SDS_P2;PMS_P1;PMS_P2;Temp;Humidity;BMP_temperature;BMP_pressure;BME280_temperature;BME280_humidity;BME280_pressure;Samples;Min_cycle;Max_cycle;Signal;HPM_P1;HPM_P2
2023/10/27 00:01:15;;;;;;;;;;;;;;;14.98;79.44;98361.03;6195055;23;19911;-95
2023/10/27 00:03:45;;;;;;;;;;;;;;;14.97;78.81;98360.25;6194971;23;20319;-94
2023/10/27 00:06:11;;;;;;;;;;;;;;;15.01;78.30;98371.25;6196370;23;19908;-94
2023/10/27 00:08:36;;;;;;;;;;;;;;;14.95;78.71;98367.91;6193561;23;19907;-95
2023/10/27 00:11:05;;;;;;;;;;;;;;;14.95;78.67;98362.50;6194449;23;19908;-94
2023/10/27 00:13:32;;;;;;;;;;;;;;;14.92;78.39;98360.41;6194884;23;19912;-94
2023/10/27 00:16:01;;;;;;;;;;;;;;;14.89;78.30;98358.34;6195224;23;20331;-95
2023/10/27 00:18:34;;;;;;;;;;;;;;;14.83;78.18;98355.00;6194775;23;19951;-95
2023/10/27 00:21:04;;;;;;;;;;;;;;;14.81;77.92;98351.81;6196156;23;19908;-93
2023/10/27 00:23:32;;;;;;;;;;;;;;;14.86;77.48;98350.88;6195368;23;19907;-93
2023/10/27 00:25:57;;;;;;;;;;;;;;;14.88;77.34;98338.59;6194909;23;19908;-96
2023/10/27 00:28:22;;;;;;;;;;;;;;;14.84;77.62;98336.84;6194324;23;19948;-95
2023/10/27 00:30:48;;;;;;;;;;;;;;;14.79;77.84;98323.47;6194111;23;19923;-94
2023/10/27 00:33:31;;;;;;;;;;;;;;;14.73;77.99;98323.63;6194109;23;19930;-94
2023/10/27 00:35:57;;;;;;;;;;;;;;;14.69;78.10;98322.69;6195377;23;19912;-94
2023/10/27 00:38:22;;;;;;;;;;;;;;;14.75;77.69;98324.13;6195473;23;19979;-96
2023/10/27 00:40:48;;;;;;;;;;;;;;;14.82;77.70;98312.00;6195693;23;19908;-94
2023/10/27 00:43:15;;;;;;;;;;;;;;;14.67;78.31;98308.66;6220390;23;19920;-95
2023/10/27 00:45:41;;;;;;;;;;;;;;;14.65;78.41;98308.19;6196956;23;19923;-95
2023/10/27 00:48:06;;;;;;;;;;;;;;;14.67;78.06;98310.56;6194095;23;19975;-95
2023/10/27 00:50:32;;;;;;;;;;;;;;;14.64;78.11;98313.94;6193840;23;19908;-95
2023/10/27 00:52:57;;;;;;;;;;;;;;;14.70;77.63;98318.06;6193470;23;19915;-95
2023/10/27 00:55:22;;;;;;;;;;;;;;;14.72;77.82;98319.31;6193391;23;19919;-95
2023/10/27 00:57:48;;;;;;;;;;;;;;;14.68;78.27;98317.59;6192616;23;19908;-95
2023/10/27 01:00:20;;;;;;;;;;;;;;;14.65;78.26;98308.19;6192915;23;19908;-95
2023/10/27 01:02:56;;;;;;;;;;;;;;;14.59;78.50;98305.94;6193728;23;19918;-95
2023/10/27 01:05:24;;;;;;;;;;;;;;;14.54;78.73;98296.84;6194177;23;19908;-94
2023/10/27 01:07:55;;;;;;;;;;;;;;;14.50;78.92;98303.22;6194306;23;19907;-96
2023/10/27 01:10:21;;;;;;;;;;;;;;;14.44;78.66;98296.38;6194688;23;19991;-94
2023/10/27 01:12:50;;;;;;;;;;;;;;;14.43;78.51;98308.34;6194570;23;19908;-94
2023/10/27 01:15:19;;;;;;;;;;;;;;;14.45;78.15;98304.19;6193210;23;19951;-93
2023/10/27 01:17:48;;;;;;;;;;;;;;;14.40;78.57;98309.78;6194733;23;20304;-94
2023/10/27 01:20:15;;;;;;;;;;;;;;;14.38;78.64;98305.78;6193938;23;19908;-94
2023/10/27 01:22:41;;;;;;;;;;;;;;;14.32;78.56;98311.38;6193621;23;20300;-93
2023/10/27 01:25:07;;;;;;;;;;;;;;;14.40;78.59;98317.09;6195815;23;19912;-95
2023/10/27 01:27:33;;;;;;;;;;;;;;;14.38;78.60;98314.72;6194514;23;19908;-95
2023/10/27 01:30:09;;;;;;;;;;;;;;;14.38;78.53;98308.50;6195344;23;19915;-94
2023/10/27 01:32:40;;;;;;;;;;;;;;;14.38;78.41;98305.78;6197296;23;20318;-95
2023/10/27 01:35:05;;;;;;;;;;;;;;;14.34;78.86;98297.53;6195506;23;20081;-95
2023/10/27 01:37:32;;;;;;;;;;;;;;;14.45;78.19;98308.81;6194206;23;19908;-94
2023/10/27 01:39:59;;;;;;;;;;;;;;;14.42;78.36;98310.25;6195428;23;19908;-94
2023/10/27 01:42:24;;;;;;;;;;;;;;;14.49;77.91;98326.03;6196743;23;19908;-94
2023/10/27 01:44:50;;;;;;;;;;;;;;;14.42;78.37;98320.28;6196487;23;20343;-94
2023/10/27 01:47:15;;;;;;;;;;;;;;;14.49;78.05;98315.19;6198985;23;20327;-93
2023/10/27 01:49:40;;;;;;;;;;;;;;;14.60;78.01;98310.25;6207053;23;19976;-94
2023/10/27 01:52:06;;;;;;;;;;;;;;;14.54;78.05;98325.84;6209692;23;19916;-94
2023/10/27 01:54:32;;;;;;;;;;;;;;;14.64;77.55;98319.34;6210499;23;19916;-95
2023/10/27 01:57:04;;;;;;;;;;;;;;;14.67;77.35;98300.53;6234522;23;19907;-95
2023/10/27 01:59:30;;;;;;;;;;;;;;;14.58;78.19;98309.78;6199843;23;19915;-95
2023/10/27 02:01:55;;;;;;;;;;;;;;;14.63;77.55;98315.84;6197531;23;19923;-95
2023/10/27 02:04:23;;;;;;;;;;;;;;;14.60;77.97;98321.09;6196917;23;19908;-94
2023/10/27 02:06:48;;;;;;;;;;;;;;;14.66;77.64;98317.91;6197753;23;20315;-96
2023/10/27 02:09:21;;;;;;;;;;;;;;;14.70;77.42;98326.19;6195912;23;19957;-92
2023/10/27 02:11:52;;;;;;;;;;;;;;;14.72;77.27;98326.66;6194466;23;19934;-96
2023/10/27 02:14:17;;;;;;;;;;;;;;;14.72;77.71;98332.09;6196918;23;19934;-94
2023/10/27 02:16:45;;;;;;;;;;;;;;;14.69;77.88;98328.09;6197139;23;19931;-95
2023/10/27 02:19:13;;;;;;;;;;;;;;;14.69;77.80;98321.88;6195755;23;20331;-93
2023/10/27 02:21:45;;;;;;;;;;;;;;;14.70;77.57;98326.19;6194585;23;19961;-95
2023/10/27 02:24:15;;;;;;;;;;;;;;;14.68;77.47;98328.41;6195948;23;19919;-94
2023/10/27 02:26:51;;;;;;;;;;;;;;;14.72;77.25;98324.75;6195449;23;19908;-96
2023/10/27 02:29:17;;;;;;;;;;;;;;;14.69;77.45;98327.28;6196605;23;19978;-94
2023/10/27 02:31:48;;;;;;;;;;;;;;;14.67;77.34;98329.53;6194926;23;19908;-95
2023/10/27 02:34:14;;;;;;;;;;;;;;;14.72;76.96;98323.94;6194872;23;19915;-95
2023/10/27 02:36:39;;;;;;;;;;;;;;;14.72;76.95;98330.16;6194761;23;19955;-93
2023/10/27 02:39:07;;;;;;;;;;;;;;;14.81;76.15;98338.28;6194459;23;19908;-95
2023/10/27 02:41:32;;;;;;;;;;;;;;;14.80;76.50;98341.31;6196573;23;19899;-95
2023/10/27 02:43:58;;;;;;;;;;;;;;;14.84;76.34;98344.97;6195251;23;19920;-94
2023/10/27 02:46:26;;;;;;;;;;;;;;;14.81;76.46;98332.06;6195782;23;19908;-94
2023/10/27 02:48:51;;;;;;;;;;;;;;;14.83;76.35;98332.53;6196539;23;19909;-95
2023/10/27 02:51:17;;;;;;;;;;;;;;;14.78;76.56;98327.31;6195020;23;20258;-96
2023/10/27 02:53:42;;;;;;;;;;;;;;;14.85;76.49;98331.09;6193624;23;19919;-95
2023/10/27 02:56:09;;;;;;;;;;;;;;;14.89;75.79;98329.31;6194617;23;19912;-94
2023/10/27 02:58:34;;;;;;;;;;;;;;;14.88;76.20;98324.22;6195546;23;19912;-95
2023/10/27 03:01:00;;;;;;;;;;;;;;;14.88;75.99;98316.91;6194240;23;19915;-95
2023/10/27 03:03:32;;;;;;;;;;;;;;;14.82;76.85;98323.63;6195616;23;19919;-94
2023/10/27 03:06:00;;;;;;;;;;;;;;;14.84;76.63;98318.66;6196563;23;19970;-95
2023/10/27 03:08:27;;;;;;;;;;;;;;;14.86;76.69;98316.44;6220185;23;19979;-95
2023/10/27 03:10:52;;;;;;;;;;;;;;;14.87;76.42;98314.50;6193400;23;19912;-94
2023/10/27 03:13:21;;;;;;;;;;;;;;;14.86;76.85;98315.66;6193107;23;19908;-94
2023/10/27 03:15:51;;;;;;;;;;;;;;;14.94;76.28;98322.94;6196201;23;19916;-94
2023/10/27 03:18:19;;;;;;;;;;;;;;;14.96;76.40;98320.69;6193638;23;19911;-96
2023/10/27 03:20:44;;;;;;;;;;;;;;;15.01;75.96;98315.13;6194174;23;19908;-94
2023/10/27 03:23:09;;;;;;;;;;;;;;;15.05;75.78;98313.34;6195136;23;19983;-94
2023/10/27 03:25:44;;;;;;;;;;;;;;;15.06;76.04;98314.94;6220239;23;19938;-95
2023/10/27 03:28:12;;;;;;;;;;;;;;;15.14;75.64;98308.69;6195204;23;19908;-94
2023/10/27 03:30:37;;;;;;;;;;;;;;;15.05;76.40;98299.00;6223708;23;19930;-94
2023/10/27 03:33:02;;;;;;;;;;;;;;;15.00;76.84;98302.66;6196940;23;19908;-94
2023/10/27 03:35:28;;;;;;;;;;;;;;;15.06;76.09;98303.28;6196608;23;19919;-95
2023/10/27 03:37:54;;;;;;;;;;;;;;;15.03;75.90;98293.91;6196720;23;19954;-95
2023/10/27 03:40:19;;;;;;;;;;;;;;;14.96;76.13;98301.72;6197582;23;20357;-95
2023/10/27 03:42:47;;;;;;;;;;;;;;;14.96;76.45;98301.72;6195700;23;19908;-95
2023/10/27 03:45:12;;;;;;;;;;;;;;;14.98;76.05;98294.06;6195921;23;19916;-94
2023/10/27 03:47:38;;;;;;;;;;;;;;;15.03;76.19;98298.53;6195046;23;20259;-94
2023/10/27 03:50:05;;;;;;;;;;;;;;;15.09;76.00;98300.75;6194727;23;20346;-94
2023/10/27 03:52:30;;;;;;;;;;;;;;;15.03;76.42;98290.41;6195315;23;19986;-92
2023/10/27 03:54:56;;;;;;;;;;;;;;;15.06;76.20;98290.53;6195292;23;19923;-93
2023/10/27 03:57:21;;;;;;;;;;;;;;;15.01;76.34;98292.63;6194761;23;19908;-92
2023/10/27 03:59:47;;;;;;;;;;;;;;;14.98;76.50;98288.63;6194763;23;19907;-94
2023/10/27 04:02:12;;;;;;;;;;;;;;;15.00;76.23;98283.69;6195240;23;19907;-93
2023/10/27 04:04:39;;;;;;;;;;;;;;;15.07;76.05;98285.91;6197196;23;20313;-94
2023/10/27 04:10:09;;;;;;;;;;;;;;;15.05;76.17;98288.16;6227082;23;19908;-94
2023/10/27 04:12:37;;;;;;;;;;;;;;;15.11;76.45;98284.94;6196870;23;19915;-95
2023/10/27 04:15:02;;;;;;;;;;;;;;;14.94;76.92;98284.97;6196370;23;19935;-95
2023/10/27 04:17:41;;;;;;;;;;;;;;;;;;;;;
2023/10/27 04:20:10;;;;;;;;;;;;;;;15.03;76.64;98276.84;6227174;23;19944;-96
2023/10/27 04:22:38;;;;;;;;;;;;;;;15.07;76.51;98283.22;6208301;23;19949;-93
2023/10/27 04:25:03;;;;;;;;;;;;;;;15.10;76.38;98277.13;6202947;23;20341;-96
2023/10/27 04:30:11;;;;;;;;;;;;;;;15.12;76.61;98274.88;6258769;22;19919;-95
2023/10/27 04:35:58;;;;;;;;;;;;;;;15.17;76.50;98261.16;6191709;22;19927;-96
2023/10/27 04:38:34;;;;;;;;;;;;;;;;;;;;;
2023/10/27 04:44:17;;;;;;;;;;;;;;;15.19;76.86;98267.06;6208480;22;20005;-96
2023/10/27 04:46:42;;;;;;;;;;;;;;;15.26;76.55;98259.19;6231860;23;19927;-93
2023/10/27 04:49:25;;;;;;;;;;;;;;;15.32;76.09;98255.16;6200248;23;19932;-93
2023/10/27 04:55:16;;;;;;;;;;;;;;;;;;;;;
2023/10/27 04:57:35;;;;;;;;;;;;;;;15.38;76.04;98263.94;6213348;23;19924;-95
2023/10/27 05:02:39;;;;;;;;;;;;;;;15.41;75.53;98257.84;6239656;22;19924;-96
2023/10/27 05:07:35;;;;;;;;;;;;;;;15.34;76.27;98254.84;6260651;22;19920;-96
2023/10/27 05:10:02;;;;;;;;;;;;;;;15.46;75.83;98254.13;6233324;23;19908;-96
2023/10/27 05:12:27;;;;;;;;;;;;;;;15.38;76.35;98253.06;6203014;23;19907;-95
2023/10/27 05:14:56;;;;;;;;;;;;;;;15.44;76.10;98253.66;6202007;23;20018;-95
2023/10/27 05:17:27;;;;;;;;;;;;;;;15.53;75.58;98259.84;6207709;23;19947;-96
2023/10/27 05:19:56;;;;;;;;;;;;;;;15.62;74.94;98259.78;6262636;23;19930;-93
2023/10/27 05:27:31;;;;;;;;;;;;;;;15.62;75.49;98268.72;6223216;22;19919;-91
2023/10/27 05:29:57;;;;;;;;;;;;;;;15.66;74.59;98268.84;6200186;23;19949;-93
2023/10/27 05:32:22;;;;;;;;;;;;;;;15.73;74.26;98274.59;6199047;23;20327;-93
2023/10/27 05:34:47;;;;;;;;;;;;;;;15.78;73.91;98268.97;6201248;23;19911;-94
2023/10/27 05:37:22;;;;;;;;;;;;;;;15.84;73.53;98272.28;6204168;23;19987;-96
2023/10/27 05:39:50;;;;;;;;;;;;;;;15.90;73.38;98270.97;6230419;23;19914;-93
2023/10/27 05:42:18;;;;;;;;;;;;;;;15.84;73.67;98270.38;6200643;23;19908;-95
2023/10/27 05:44:43;;;;;;;;;;;;;;;15.98;73.28;98277.44;6196423;23;20339;-94
2023/10/27 05:47:09;;;;;;;;;;;;;;;15.98;73.93;98267.41;6202609;23;19935;-95
2023/10/27 05:49:41;;;;;;;;;;;;;;;16.06;73.13;98257.56;6221515;23;20247;-94
2023/10/27 05:52:10;;;;;;;;;;;;;;;16.11;73.23;98262.81;6224096;23;20220;-92
2023/10/27 05:54:48;;;;;;;;;;;;;;;;;;;;;
2023/10/27 05:57:16;;;;;;;;;;;;;;;16.32;71.77;98263.59;6226618;23;19966;-93
2023/10/27 05:59:45;;;;;;;;;;;;;;;16.47;71.47;98259.44;6222461;23;19915;-94
2023/10/27 06:02:10;;;;;;;;;;;;;;;16.56;71.88;98246.59;6201745;23;19933;-95
2023/10/27 06:04:36;;;;;;;;;;;;;;;16.61;72.19;98247.50;6224498;23;19908;-91
2023/10/27 06:07:01;;;;;;;;;;;;;;;16.73;71.98;98242.88;6197258;23;19911;-93
2023/10/27 06:09:29;;;;;;;;;;;;;;;16.82;71.64;98245.53;6197588;23;20000;-93
2023/10/27 06:11:54;;;;;;;;;;;;;;;16.96;70.99;98242.50;6197410;23;19918;-92
2023/10/27 06:14:23;;;;;;;;;;;;;;;17.05;70.92;98245.88;6196902;23;19912;-92
2023/10/27 06:16:48;;;;;;;;;;;;;;;17.13;70.90;98244.97;6225040;23;19946;-91
2023/10/27 06:19:14;;;;;;;;;;;;;;;17.31;70.13;98250.22;6222961;23;19911;-92
2023/10/27 06:21:39;;;;;;;;;;;;;;;17.46;69.82;98257.69;6200159;23;19907;-91
2023/10/27 06:24:07;;;;;;;;;;;;;;;17.58;68.21;98249.50;6224386;23;19918;-92
2023/10/27 06:26:32;;;;;;;;;;;;;;;17.72;66.74;98249.16;6202635;23;19907;-95
2023/10/27 06:28:58;;;;;;;;;;;;;;;17.81;67.76;98246.28;6228545;23;19938;-95
2023/10/27 06:31:40;;;;;;;;;;;;;;;;;;;;;
2023/10/27 06:34:19;;;;;;;;;;;;;;;18.02;68.35;98250.81;6241755;23;19947;-96
2023/10/27 06:42:37;;;;;;;;;;;;;;;18.09;67.72;98240.09;6259511;22;19924;-96
2023/10/27 06:45:11;;;;;;;;;;;;;;;18.15;68.03;98236.00;6240064;22;20253;-94
2023/10/27 06:47:37;;;;;;;;;;;;;;;18.23;67.92;98240.50;6203620;23;19935;-96
2023/10/27 06:50:15;;;;;;;;;;;;;;;;;;;;;
2023/10/27 06:52:50;;;;;;;;;;;;;;;18.48;67.73;98229.50;6233188;23;19916;-95
2023/10/27 06:55:21;;;;;;;;;;;;;;;18.57;67.64;98238.28;6203354;23;19908;-93
2023/10/27 06:57:49;;;;;;;;;;;;;;;18.63;67.39;98236.88;6200845;23;19923;-93
2023/10/27 07:00:15;;;;;;;;;;;;;;;18.71;66.97;98227.75;6201170;23;19965;-96
2023/10/27 07:02:44;;;;;;;;;;;;;;;18.83;66.47;98231.59;6202690;23;19908;-96
2023/10/27 07:05:13;;;;;;;;;;;;;;;18.93;66.26;98225.63;6209356;23;19907;-91
2023/10/27 07:07:39;;;;;;;;;;;;;;;18.98;66.27;98231.56;6258774;23;19931;-94
2023/10/27 07:10:05;;;;;;;;;;;;;;;18.99;66.47;98221.47;6203281;23;19916;-94
2023/10/27 07:12:30;;;;;;;;;;;;;;;19.03;66.10;98216.91;6203060;23;19912;-94
2023/10/27 07:14:56;;;;;;;;;;;;;;;19.15;65.37;98208.63;6207919;23;19912;-96
2023/10/27 07:17:35;;;;;;;;;;;;;;;19.31;64.71;98205.84;6204809;23;19915;-94
2023/10/27 07:20:00;;;;;;;;;;;;;;;19.40;63.41;98202.91;6189252;23;19931;-96
2023/10/27 07:22:34;;;;;;;;;;;;;;;19.47;62.45;98194.13;6205891;23;19912;-96
2023/10/27 07:25:01;;;;;;;;;;;;;;;19.56;61.78;98189.22;6205774;23;19908;-94
2023/10/27 07:27:29;;;;;;;;;;;;;;;19.62;60.43;98189.75;6201300;23;19926;-94
2023/10/27 07:30:10;;;;;;;;;;;;;;;19.75;59.70;98178.34;6199601;23;19908;-93
2023/10/27 07:32:55;;;;;;;;;;;;;;;19.84;58.62;98180.88;6202468;23;19908;-93
2023/10/27 07:35:23;;;;;;;;;;;;;;;19.97;56.90;98165.13;6223861;23;19907;-93
2023/10/27 07:37:51;;;;;;;;;;;;;;;20.08;56.63;98168.06;6224912;23;19964;-94
2023/10/27 07:40:19;;;;;;;;;;;;;;;20.21;56.07;98155.81;6200106;23;19927;-94
2023/10/27 07:42:44;;;;;;;;;;;;;;;20.31;56.39;98160.69;6199828;23;19891;-93
2023/10/27 07:45:09;;;;;;;;;;;;;;;20.33;57.30;98154.84;6200376;23;19908;-93
2023/10/27 07:59:15;;;;;;;;;;;;;;;21.14;56.50;98145.66;6222399;22;19919;-95
2023/10/27 08:01:43;;;;;;;;;;;;;;;21.29;56.22;98141.97;6198676;23;20379;-92
2023/10/27 08:04:32;;;;;;;;;;;;;;;21.40;56.30;98137.41;6200443;23;19918;-96
2023/10/27 08:13:20;;;;;;;;;;;;;;;21.92;53.80;98142.38;6217891;23;19907;-94
2023/10/27 08:15:49;;;;;;;;;;;;;;;22.00;51.80;98141.31;6198328;23;19934;-95
2023/10/27 08:18:14;;;;;;;;;;;;;;;22.09;49.67;98144.53;6224361;23;19908;-93
2023/10/27 08:20:40;;;;;;;;;;;;;;;22.17;49.40;98145.41;6199380;23;20298;-93
2023/10/27 08:23:08;;;;;;;;;;;;;;;22.27;47.85;98152.19;6197854;23;20330;-92
2023/10/27 08:25:33;;;;;;;;;;;;;;;22.31;47.67;98151.06;6201208;23;19907;-90
2023/10/27 08:28:51;;;;;;;;;;;;;;;;;;;;;
2023/10/27 08:30:48;;;;;;;;;;;;;;;22.42;48.75;98145.66;6207813;23;19995;-95
2023/10/27 08:33:31;;;;;;;;;;;;;;;;;;;;;
2023/10/27 08:36:00;;;;;;;;;;;;;;;22.57;47.78;98158.34;6226101;23;19943;-94
2023/10/27 08:38:34;;;;;;;;;;;;;;;22.66;47.91;98151.75;6225962;23;19908;-94
2023/10/27 08:41:04;;;;;;;;;;;;;;;22.78;47.21;98145.97;6226311;23;19908;-95
2023/10/27 08:43:30;;;;;;;;;;;;;;;22.87;47.43;98146.44;6227106;23;19977;-95
2023/10/27 08:46:16;;;;;;;;;;;;;;;22.98;47.16;98144.56;6225346;23;19907;-93
2023/10/27 08:48:50;;;;;;;;;;;;;;;23.11;45.40;98149.78;6206093;23;20525;-92
2023/10/27 08:51:20;;;;;;;;;;;;;;;23.22;45.31;98147.09;6198316;23;19907;-94
2023/10/27 08:53:46;;;;;;;;;;;;;;;23.33;45.47;98148.72;6223488;23;19907;-94
2023/10/27 08:56:12;;;;;;;;;;;;;;;23.37;45.04;98146.00;6196829;23;19912;-93
2023/10/27 08:58:54;;;;;;;;;;;;;;;23.48;44.64;98148.81;6219968;23;20339;-96
2023/10/27 09:01:43;;;;;;;;;;;;;;;23.57;45.46;98136.31;6198645;23;19911;-93
2023/10/27 09:04:24;;;;;;;;;;;;;;;;;;;;;
2023/10/27 09:06:49;;;;;;;;;;;;;;;23.82;45.81;98129.34;6217861;23;19971;-94
2023/10/27 09:09:30;;;;;;;;;;;;;;;23.90;45.93;98128.97;6219395;23;19919;-93
2023/10/27 09:11:58;;;;;;;;;;;;;;;24.01;45.34;98142.78;6193926;23;19950;-94
2023/10/27 09:14:44;;;;;;;;;;;;;;;;;;;;;
2023/10/27 09:17:17;;;;;;;;;;;;;;;24.16;45.36;98138.88;6216922;23;19986;-90
2023/10/27 09:19:45;;;;;;;;;;;;;;;24.23;45.26;98134.56;6216548;23;19934;-93
2023/10/27 09:25:43;;;;;;;;;;;;;;;24.30;42.77;98116.13;6143389;23;19915;-94
2023/10/27 09:28:08;;;;;;;;;;;;;;;24.32;42.49;98112.97;6216298;23;20266;-92
2023/10/27 09:30:33;;;;;;;;;;;;;;;24.46;42.83;98115.72;6217833;23;20031;-92
2023/10/27 09:33:18;;;;;;;;;;;;;;;24.51;43.73;98107.13;6215510;23;19908;-93
2023/10/27 09:35:53;;;;;;;;;;;;;;;24.57;44.06;98094.53;6215628;23;19912;-92
2023/10/27 09:38:25;;;;;;;;;;;;;;;24.63;44.62;98086.66;6215320;23;19947;-91
2023/10/27 09:40:53;;;;;;;;;;;;;;;24.65;43.46;98086.25;6191517;23;20011;-93
2023/10/27 09:43:26;;;;;;;;;;;;;;;24.69;42.86;98082.31;6190765;23;19912;-93
2023/10/27 09:45:57;;;;;;;;;;;;;;;24.71;42.87;98070.94;6190769;23;19912;-93
2023/10/27 09:48:34;;;;;;;;;;;;;;;24.68;42.70;98058.75;6191616;23;19908;-94
2023/10/27 09:51:17;;;;;;;;;;;;;;;24.72;42.15;98059.53;6191684;23;19986;-93
2023/10/27 09:53:45;;;;;;;;;;;;;;;24.72;42.97;98051.28;6190947;23;20392;-94
2023/10/27 09:56:13;;;;;;;;;;;;;;;24.77;42.25;98050.06;6192363;23;19935;-94
2023/10/27 10:01:33;;;;;;;7.00;2.85;;;;;;;24.60;42.46;98018.66;4948452;27;4708178;-92
2023/10/27 10:03:59;;;;;;;13.68;4.10;;;;;;;24.68;42.47;98024.94;5081720;28;20032;-93
2023/10/27 10:06:24;;;;;;;10.95;3.55;;;;;;;24.63;42.70;98009.59;5080153;28;20467;-93
2023/10/27 10:09:11;;;;;;;7.65;2.67;;;;;;;24.81;41.53;98032.38;5061073;28;20485;-92
2023/10/27 10:12:00;;;;;;;9.60;3.30;;;;;;;24.64;41.87;97991.91;5078012;28;20462;-95
2023/10/27 10:14:46;;;;;;;10.63;3.22;;;;;;;24.82;40.85;98000.13;5077086;28;20127;-94
2023/10/27 10:17:17;;;;;;;6.45;2.30;;;;;;;24.83;39.82;97989.91;5097788;28;20031;-93
2023/10/27 10:20:01;;;;;;;;;;;;;;;;;;;;;
2023/10/27 10:33:03;;;;;;;;;;;;;;;;;;;;;
2023/10/27 10:35:27;;;;;;;6.32;1.95;;;;;;;25.37;37.27;97949.16;5084725;28;20065;-96
2023/10/27 10:37:53;;;;;;;9.15;1.77;;;;;;;25.49;37.04;97937.66;5079220;28;20500;-94
2023/10/27 10:40:37;;;;;;;;;;;;;;;;;;;;;
2023/10/27 10:43:40;;;;;;;7.13;2.95;;;;;;;25.80;35.59;97951.63;5084388;28;20095;-95
2023/10/27 10:46:10;;;;;;;6.72;3.67;;;;;;;25.73;36.34;97937.88;5047852;28;20035;-95
2023/10/27 10:48:52;;;;;;;4.55;1.70;;;;;;;25.85;35.01;97931.88;5061544;28;20047;-94
2023/10/27 10:52:02;;;;;;;;;;;;;;;26.06;35.27;97960.53;5080180;28;20398;-96
2023/10/27 11:01:50;;;;;;;6.13;1.88;;;;;;;25.77;34.91;97922.91;5077156;28;20201;-95
2023/10/27 11:04:43;;;;;;;9.77;3.50;;;;;;;25.70;35.58;97911.94;5079973;28;20048;-93
2023/10/27 11:07:23;;;;;;;5.93;2.40;;;;;;;25.77;34.94;97925.66;5076251;28;20052;-93
2023/10/27 11:09:49;;;;;;;8.63;2.35;;;;;;;25.73;35.54;97921.34;5075029;28;20431;-92
2023/10/27 11:12:27;;;;;;;3.78;1.50;;;;;;;25.67;35.53;97932.03;5051458;28;20021;-93
2023/10/27 11:14:52;;;;;;;15.18;5.00;;;;;;;25.69;35.81;97937.13;5027840;28;20051;-93
2023/10/27 11:17:28;;;;;;;27.80;16.33;;;;;;;25.64;35.28;97921.81;5029883;28;20029;-94
2023/10/27 11:19:59;;;;;;;6.28;3.30;;;;;;;25.74;35.35;97942.22;5046420;28;20021;-93
2023/10/27 11:22:27;;;;;;;8.93;4.10;;;;;;;25.69;35.00;97937.94;5008961;28;20029;-91
2023/10/27 11:27:46;;;;;;;4.80;2.15;;;;;;;25.64;35.61;97934.81;5026043;28;20517;-93
2023/10/27 11:30:16;;;;;;;4.78;1.80;;;;;;;25.80;35.67;97937.84;5025109;28;20463;-95
2023/10/27 11:32:43;;;;;;;8.88;2.60;;;;;;;25.79;35.33;97936.28;5024378;28;20502;-92
2023/10/27 11:38:32;;;;;;;4.25;1.30;;;;;;;25.78;32.86;97931.97;5041887;28;20038;-94
2023/10/27 11:41:22;;;;;;;3.55;1.40;;;;;;;25.66;32.31;97924.16;5004775;28;20085;-95
2023/10/27 11:43:47;;;;;;;5.72;1.30;;;;;;;25.69;32.33;97923.34;4995009;28;20479;-94
2023/10/27 11:46:17;;;;;;;11.57;4.43;;;;;;;25.66;32.84;97924.16;5003512;28;20040;-95
2023/10/27 11:49:03;;;;;;;6.15;1.98;;;;;;;25.82;32.74;97946.50;5009259;28;20406;-92
2023/10/27 11:51:33;;;;;;;7.45;1.90;;;;;;;25.64;32.81;97930.09;5059648;28;20434;-91
2023/10/27 11:53:59;;;;;;;6.38;1.20;;;;;;;25.53;32.26;97916.38;5040938;28;20025;-91
2023/10/27 11:56:27;;;;;;;3.13;1.50;;;;;;;25.51;32.52;97921.50;5038997;28;20112;-90
2023/10/27 11:58:55;;;;;;;4.43;1.27;;;;;;;25.41;32.65;97917.63;5020072;28;20036;-91
2023/10/27 12:01:21;;;;;;;6.18;1.75;;;;;;;25.51;32.37;97927.03;5066045;28;20032;-93
2023/10/27 12:04:35;;;;;;;22.80;16.23;;;;;;;25.29;32.74;97909.06;5064017;28;20040;-95
2023/10/27 12:07:02;;;;;;;6.97;2.08;;;;;;;25.30;32.50;97905.91;5059990;28;20062;-95
2023/10/27 12:09:34;;;;;;;8.18;1.63;;;;;;;25.22;33.38;97890.59;5048350;28;20021;-95
2023/10/27 12:12:13;;;;;;;13.02;1.83;;;;;;;25.25;33.50;97900.81;5065613;28;20032;-96
2023/10/27 12:18:13;;;;;;;4.20;1.05;;;;;;;25.20;32.96;97879.19;5055952;28;20028;-94
2023/10/27 12:20:42;;;;;;;5.82;1.75;;;;;;;25.11;33.64;97876.88;5062132;28;20028;-95
2023/10/27 12:23:08;;;;;;;7.88;2.65;;;;;;;25.17;33.74;97880.78;5044629;28;20048;-93
2023/10/27 12:25:48;;;;;;;;;;;;;;;;;;;;;
2023/10/27 12:41:13;;;;;;;7.90;2.60;;;;;;;25.19;35.46;97881.16;5013864;26;20057;-94
2023/10/27 12:44:10;;;;;;;;;;;;;;;;;;;;;
2023/10/27 12:46:52;;;;;;;;;;;;;;;;;;;;;
2023/10/27 12:49:18;;;;;;;;;;;;;;;25.29;36.88;97878.75;5011396;28;20104;-93
2023/10/27 12:58:03;;;;;;;6.82;2.83;;;;;;;25.07;37.21;97853.28;5311611;22;20071;-93
2023/10/27 13:31:58;;;;;;;12.73;2.75;;;;;;;24.69;38.15;97845.59;5012700;28;20069;-95
2023/10/27 13:34:52;;;;;;;14.18;2.78;;;;;;;24.73;37.92;97873.91;4995292;28;20069;-96
2023/10/27 13:37:17;;;;;;;10.43;3.17;;;;;;;24.61;37.74;97863.31;4983085;28;20055;-94
2023/10/27 13:39:53;;;;;;;10.45;2.80;;;;;;;24.62;37.98;97855.88;4950263;28;20038;-94
2023/10/27 13:42:29;;;;;;;9.63;2.65;;;;;;;24.57;37.66;97855.09;4964564;28;20054;-94
2023/10/27 13:44:56;;;;;;;16.25;3.70;;;;;;;24.58;38.12;97864.91;4965264;28;20066;-95
2023/10/27 13:47:25;;;;;;;8.70;2.30;;;;;;;24.51;37.98;97858.66;4964110;28;20034;-94
2023/10/27 13:55:52;;;;;;;9.77;3.50;;;;;;;24.38;38.47;97848.06;5383371;23;20342;-96
2023/10/27 13:58:18;;;;;;;9.50;3.05;;;;;;;24.34;38.82;97846.50;4990370;28;20046;-94
2023/10/27 14:00:44;;;;;;;6.10;2.22;;;;;;;24.30;39.00;97849.28;4968104;28;20097;-95
2023/10/27 14:03:10;;;;;;;9.48;2.35;;;;;;;24.32;39.17;97857.13;4967592;28;20484;-93
2023/10/27 14:05:55;;;;;;;10.80;2.30;;;;;;;24.21;39.52;97844.16;4968849;28;20025;-94
2023/10/27 14:08:21;;;;;;;10.80;2.90;;;;;;;24.29;39.44;97858.69;4987507;28;20037;-96
2023/10/27 14:10:47;;;;;;;9.20;2.85;;;;;;;24.18;40.00;97849.69;4970846;28;20318;-95
2023/10/27 14:13:13;;;;;;;16.60;3.33;;;;;;;24.05;40.26;97838.34;4971633;28;20124;-95
2023/10/27 14:15:38;;;;;;;14.95;2.72;;;;;;;24.03;40.95;97848.16;4971541;28;20022;-94
2023/10/27 14:18:05;;;;;;;10.68;3.03;;;;;;;23.95;41.36;97850.94;4973765;28;20034;-95
2023/10/27 14:20:36;;;;;;;9.07;2.20;;;;;;;23.87;41.19;97851.34;4973110;28;20022;-95
2023/10/27 14:23:04;;;;;;;10.57;2.40;;;;;;;23.78;41.62;97843.47;4975088;28;20026;-95
2023/10/27 14:25:35;;;;;;;11.23;4.10;;;;;;;23.74;42.38;97848.16;4966531;28;20022;-93
2023/10/27 14:28:00;;;;;;;11.60;3.10;;;;;;;23.59;42.65;97834.44;4981388;28;20052;-95
2023/10/27 14:30:26;;;;;;;15.07;3.53;;;;;;;23.63;43.00;97852.88;4964500;28;20022;-91
2023/10/27 14:32:52;;;;;;;12.02;4.15;;;;;;;23.52;43.65;97847.38;4964532;28;20415;-94
2023/10/27 14:35:17;;;;;;;15.88;3.40;;;;;;;23.40;42.56;97837.56;4982279;28;20060;-93
2023/10/27 14:37:43;;;;;;;11.68;3.10;;;;;;;23.31;42.27;97823.44;4985481;28;20127;-94
2023/10/27 14:40:09;;;;;;;12.35;3.70;;;;;;;23.25;42.03;97823.03;4971497;28;20124;-95
2023/10/27 14:42:36;;;;;;;7.68;2.70;;;;;;;23.15;42.95;97821.06;4971415;28;20103;-94
2023/10/27 14:45:04;;;;;;;7.45;2.53;;;;;;;23.12;42.89;97825.38;4987268;28;20145;-95
2023/10/27 14:47:31;;;;;;;11.80;3.13;;;;;;;23.05;42.77;97847.31;4995994;28;20022;-95
2023/10/27 14:49:57;;;;;;;13.15;3.67;;;;;;;22.86;43.09;97817.47;4979143;28;20084;-96
2023/10/27 14:52:22;;;;;;;15.57;3.20;;;;;;;22.81;43.51;97821.38;4991512;28;20032;-95
2023/10/27 14:54:48;;;;;;;12.02;2.58;;;;;;;22.75;43.14;97811.94;4981270;28;20412;-93
2023/10/27 14:57:14;;;;;;;14.68;2.40;;;;;;;22.78;43.53;97839.38;5005003;28;20108;-94
2023/10/27 14:59:42;;;;;;;12.90;2.40;;;;;;;22.55;43.12;97817.75;5007563;28;20018;-95
2023/10/27 15:24:47;;;;;;;;;;;;;;;;;;;;;
2023/10/27 15:38:19;;;;;;;10.48;2.30;;;;;;;21.75;42.64;97834.16;5165203;22;19926;-95
2023/10/27 15:43:23;;;;;;;9.10;2.35;;;;;;;21.71;43.05;97825.13;5799601;23;20073;-96
2023/10/27 15:58:22;;;;;;;10.88;4.68;;;;;;;21.67;44.00;97866.19;5679903;22;20062;-96
2023/10/27 16:01:16;;;;;;;7.95;3.53;;;;;;;21.54;44.13;97849.25;4986670;28;20041;-96
2023/10/27 16:03:53;;;;;;;8.55;3.80;;;;;;;21.51;43.70;97849.22;5029715;28;20030;-95
2023/10/27 16:06:57;;;;;;;6.22;2.30;;;;;;;21.37;44.10;97839.69;4996231;28;20022;-95